sensor_id;sensor_type;location;lat;lon;timestamp;temperature;humidity
16491;DHT22;8356;51.214;3.270;2023-10-13T00:01:42;486.80;2380.80
16491;DHT22;8356;51.214;3.270;2023-10-13T00:04:08;486.70;2380.80
16491;DHT22;8356;51.214;3.270;2023-10-13T00:06:33;486.70;2380.80
16491;DHT22;8356;51.214;3.270;2023-10-13T00:08:59;486.80;2380.80
16491;DHT22;8356;51.214;3.270;2023-10-13T00:11:25;486.80;2380.80
16491;DHT22;8356;51.214;3.270;2023-10-13T00:13:52;486.80;2380.80
16491;DHT22;8356;51.214;3.270;2023-10-13T00:16:20;486.70;2380.80
16491;DHT22;8356;51.214;3.270;2023-10-13T00:18:54;486.80;2380.80
16491;DHT22;8356;51.214;3.270;2023-10-13T00:21:23;486.80;2380.80
16491;DHT22;8356;51.214;3.270;2023-10-13T00:23:59;486.70;2380.80
16491;DHT22;8356;51.214;3.270;2023-10-13T00:26:28;486.80;2380.80
16491;DHT22;8356;51.214;3.270;2023-10-13T00:28:56;486.80;2380.80
16491;DHT22;8356;51.214;3.270;2023-10-13T00:31:38;486.80;2380.80
16491;DHT22;8356;51.214;3.270;2023-10-13T00:34:04;486.80;2380.80
16491;DHT22;8356;51.214;3.270;2023-10-13T00:36:50;486.60;2380.80
16491;DHT22;8356;51.214;3.270;2023-10-13T00:39:35;486.80;2380.80
16491;DHT22;8356;51.214;3.270;2023-10-13T00:42:09;486.80;2380.80
16491;DHT22;8356;51.214;3.270;2023-10-13T00:44:44;486.80;2380.80
16491;DHT22;8356;51.214;3.270;2023-10-13T00:47:18;486.80;2380.80
16491;DHT22;8356;51.214;3.270;2023-10-13T00:50:03;486.80;2380.80
16491;DHT22;8356;51.214;3.270;2023-10-13T00:52:30;486.80;2380.80
16491;DHT22;8356;51.214;3.270;2023-10-13T00:54:58;486.80;2380.80
16491;DHT22;8356;51.214;3.270;2023-10-13T00:57:25;486.80;2380.80
16491;DHT22;8356;51.214;3.270;2023-10-13T00:59:58;486.80;2380.80
16491;DHT22;8356;51.214;3.270;2023-10-13T01:02:25;486.70;2380.80
16491;DHT22;8356;51.214;3.270;2023-10-13T01:05:07;486.80;2380.80
16491;DHT22;8356;51.214;3.270;2023-10-13T01:07:37;486.70;2380.80
16491;DHT22;8356;51.214;3.270;2023-10-13T01:10:10;486.80;2380.80
16491;DHT22;8356;51.214;3.270;2023-10-13T01:12:40;486.80;2380.80
16491;DHT22;8356;51.214;3.270;2023-10-13T01:15:08;486.80;2380.80
16491;DHT22;8356;51.214;3.270;2023-10-13T01:17:36;486.80;2380.80
16491;DHT22;8356;51.214;3.270;2023-10-13T01:20:03;486.70;2380.80
16491;DHT22;8356;51.214;3.270;2023-10-13T01:22:30;486.80;2380.80
16491;DHT22;8356;51.214;3.270;2023-10-13T01:24:58;486.70;2380.80
16491;DHT22;8356;51.214;3.270;2023-10-13T01:27:40;486.80;2380.80
16491;DHT22;8356;51.214;3.270;2023-10-13T01:30:06;486.80;2380.80
16491;DHT22;8356;51.214;3.270;2023-10-13T01:32:35;486.80;2380.80
16491;DHT22;8356;51.214;3.270;2023-10-13T01:35:07;486.80;2380.80
16491;DHT22;8356;51.214;3.270;2023-10-13T01:37:32;486.80;2380.80
16491;DHT22;8356;51.214;3.270;2023-10-13T01:39:58;486.70;2380.80
16491;DHT22;8356;51.214;3.270;2023-10-13T01:42:24;486.70;2380.80
16491;DHT22;8356;51.214;3.270;2023-10-13T01:44:50;486.70;2380.80
16491;DHT22;8356;51.214;3.270;2023-10-13T01:47:16;486.70;2380.80
16491;DHT22;8356;51.214;3.270;2023-10-13T01:49:43;486.60;2380.80
16491;DHT22;8356;51.214;3.270;2023-10-13T01:52:12;486.70;2380.80
16491;DHT22;8356;51.214;3.270;2023-10-13T01:54:41;486.70;2380.80
16491;DHT22;8356;51.214;3.270;2023-10-13T01:57:10;461.70;2380.80
16491;DHT22;8356;51.214;3.270;2023-10-13T01:59:43;486.70;2380.80
16491;DHT22;8356;51.214;3.270;2023-10-13T02:02:10;486.70;2380.80
16491;DHT22;8356;51.214;3.270;2023-10-13T02:04:38;486.80;2380.80
16491;DHT22;8356;51.214;3.270;2023-10-13T02:07:09;486.70;2380.80
16491;DHT22;8356;51.214;3.270;2023-10-13T02:09:40;486.70;2380.80
16491;DHT22;8356;51.214;3.270;2023-10-13T02:12:05;486.70;2380.80
16491;DHT22;8356;51.214;3.270;2023-10-13T02:14:31;486.70;2380.80
16491;DHT22;8356;51.214;3.270;2023-10-13T02:16:58;486.70;2380.80
16491;DHT22;8356;51.214;3.270;2023-10-13T02:19:42;486.70;2380.80
16491;DHT22;8356;51.214;3.270;2023-10-13T02:22:11;486.70;2380.80
16491;DHT22;8356;51.214;3.270;2023-10-13T02:24:37;486.70;2380.80
16491;DHT22;8356;51.214;3.270;2023-10-13T02:27:07;486.70;2380.80
16491;DHT22;8356;51.214;3.270;2023-10-13T02:29:42;486.70;2380.80
16491;DHT22;8356;51.214;3.270;2023-10-13T02:32:11;486.70;2380.80
16491;DHT22;8356;51.214;3.270;2023-10-13T02:34:46;486.70;2380.80
16491;DHT22;8356;51.214;3.270;2023-10-13T02:37:12;486.70;2380.80
16491;DHT22;8356;51.214;3.270;2023-10-13T02:39:42;486.70;2380.80
16491;DHT22;8356;51.214;3.270;2023-10-13T02:42:08;486.70;2380.80
16491;DHT22;8356;51.214;3.270;2023-10-13T02:44:34;486.70;2380.80
16491;DHT22;8356;51.214;3.270;2023-10-13T02:47:02;486.70;2380.80
16491;DHT22;8356;51.214;3.270;2023-10-13T02:49:31;486.80;2380.80
16491;DHT22;8356;51.214;3.270;2023-10-13T02:52:00;486.80;2380.80
16491;DHT22;8356;51.214;3.270;2023-10-13T02:54:31;486.80;2380.80
16491;DHT22;8356;51.214;3.270;2023-10-13T02:57:02;486.80;2380.80
16491;DHT22;8356;51.214;3.270;2023-10-13T02:59:32;486.80;2380.80
16491;DHT22;8356;51.214;3.270;2023-10-13T03:02:06;486.80;2380.80
16491;DHT22;8356;51.214;3.270;2023-10-13T03:04:52;486.90;2380.80
16491;DHT22;8356;51.214;3.270;2023-10-13T03:07:18;486.90;2380.80
16491;DHT22;8356;51.214;3.270;2023-10-13T03:09:54;487.00;2380.80
16491;DHT22;8356;51.214;3.270;2023-10-13T03:12:23;487.00;2380.80
16491;DHT22;8356;51.214;3.270;2023-10-13T03:14:50;487.00;2380.80
16491;DHT22;8356;51.214;3.270;2023-10-13T03:17:23;487.00;2380.80
16491;DHT22;8356;51.214;3.270;2023-10-13T03:20:00;487.00;2380.80
16491;DHT22;8356;51.214;3.270;2023-10-13T03:22:26;487.00;2380.80
16491;DHT22;8356;51.214;3.270;2023-10-13T03:24:59;487.00;2380.80
16491;DHT22;8356;51.214;3.270;2023-10-13T03:27:43;487.00;2380.80
16491;DHT22;8356;51.214;3.270;2023-10-13T03:30:18;487.10;2380.80
16491;DHT22;8356;51.214;3.270;2023-10-13T03:32:46;487.00;2380.80
16491;DHT22;8356;51.214;3.270;2023-10-13T03:35:14;487.10;2380.80
16491;DHT22;8356;51.214;3.270;2023-10-13T03:37:49;487.10;2380.80
16491;DHT22;8356;51.214;3.270;2023-10-13T03:40:15;487.10;2380.80
16491;DHT22;8356;51.214;3.270;2023-10-13T03:42:52;487.10;2380.80
16491;DHT22;8356;51.214;3.270;2023-10-13T03:45:24;487.10;2380.80
16491;DHT22;8356;51.214;3.270;2023-10-13T03:47:51;487.30;2380.80
16491;DHT22;8356;51.214;3.270;2023-10-13T03:50:20;487.10;2380.80
16491;DHT22;8356;51.214;3.270;2023-10-13T03:52:56;487.10;2380.80
16491;DHT22;8356;51.214;3.270;2023-10-13T03:55:25;487.10;2380.80
16491;DHT22;8356;51.214;3.270;2023-10-13T03:57:53;487.10;2380.80
16491;DHT22;8356;51.214;3.270;2023-10-13T04:00:20;487.10;2380.80
16491;DHT22;8356;51.214;3.270;2023-10-13T04:02:55;487.10;2380.80
16491;DHT22;8356;51.214;3.270;2023-10-13T04:05:27;487.10;2380.80
16491;DHT22;8356;51.214;3.270;2023-10-13T04:08:03;487.10;2380.80
16491;DHT22;8356;51.214;3.270;2023-10-13T04:10:47;487.00;2380.80
16491;DHT22;8356;51.214;3.270;2023-10-13T04:13:19;487.00;2380.80
16491;DHT22;8356;51.214;3.270;2023-10-13T04:16:04;487.00;2380.80
16491;DHT22;8356;51.214;3.270;2023-10-13T04:18:48;487.00;2380.80
16491;DHT22;8356;51.214;3.270;2023-10-13T04:21:21;487.00;2380.80
16491;DHT22;8356;51.214;3.270;2023-10-13T04:24:09;487.00;2380.80
16491;DHT22;8356;51.214;3.270;2023-10-13T04:26:53;487.00;2380.80
16491;DHT22;8356;51.214;3.270;2023-10-13T04:29:37;487.00;2380.80
16491;DHT22;8356;51.214;3.270;2023-10-13T04:32:21;487.00;2380.80
16491;DHT22;8356;51.214;3.270;2023-10-13T04:34:57;487.00;2380.80
16491;DHT22;8356;51.214;3.270;2023-10-13T04:37:36;486.90;2380.80
16491;DHT22;8356;51.214;3.270;2023-10-13T04:40:21;487.00;2380.80
16491;DHT22;8356;51.214;3.270;2023-10-13T04:42:51;487.00;2380.80
16491;DHT22;8356;51.214;3.270;2023-10-13T04:45:23;486.90;2380.80
16491;DHT22;8356;51.214;3.270;2023-10-13T04:47:59;487.00;2380.80
16491;DHT22;8356;51.214;3.270;2023-10-13T04:50:40;487.00;2380.80
16491;DHT22;8356;51.214;3.270;2023-10-13T04:53:15;487.00;2380.80
16491;DHT22;8356;51.214;3.270;2023-10-13T04:56:00;487.00;2380.80
16491;DHT22;8356;51.214;3.270;2023-10-13T04:58:29;486.90;2380.80
16491;DHT22;8356;51.214;3.270;2023-10-13T05:01:02;487.00;2380.80
16491;DHT22;8356;51.214;3.270;2023-10-13T05:03:46;487.00;2380.80
16491;DHT22;8356;51.214;3.270;2023-10-13T05:06:40;487.00;2380.80
16491;DHT22;8356;51.214;3.270;2023-10-13T05:09:09;487.00;2380.80
16491;DHT22;8356;51.214;3.270;2023-10-13T05:11:54;486.50;2380.80
16491;DHT22;8356;51.214;3.270;2023-10-13T05:14:39;487.00;2380.80
16491;DHT22;8356;51.214;3.270;2023-10-13T05:17:23;487.00;2380.80
16491;DHT22;8356;51.214;3.270;2023-10-13T05:20:07;487.00;2380.80
16491;DHT22;8356;51.214;3.270;2023-10-13T05:22:52;487.00;2380.80
16491;DHT22;8356;51.214;3.270;2023-10-13T05:25:37;487.00;2380.80
16491;DHT22;8356;51.214;3.270;2023-10-13T05:28:21;487.00;2380.80
16491;DHT22;8356;51.214;3.270;2023-10-13T05:31:07;487.00;2380.80
16491;DHT22;8356;51.214;3.270;2023-10-13T05:33:51;487.00;2380.80
16491;DHT22;8356;51.214;3.270;2023-10-13T05:36:35;487.00;2380.80
16491;DHT22;8356;51.214;3.270;2023-10-13T05:39:19;487.00;2380.80
16491;DHT22;8356;51.214;3.270;2023-10-13T05:42:04;487.00;2380.80
16491;DHT22;8356;51.214;3.270;2023-10-13T05:44:48;487.00;2380.80
16491;DHT22;8356;51.214;3.270;2023-10-13T05:47:33;487.00;2380.80
16491;DHT22;8356;51.214;3.270;2023-10-13T05:50:07;487.00;2380.80
16491;DHT22;8356;51.214;3.270;2023-10-13T05:52:48;487.00;2380.80
16491;DHT22;8356;51.214;3.270;2023-10-13T05:55:29;487.00;2380.80
16491;DHT22;8356;51.214;3.270;2023-10-13T05:58:14;487.00;2380.80
16491;DHT22;8356;51.214;3.270;2023-10-13T06:00:58;487.00;2380.80
16491;DHT22;8356;51.214;3.270;2023-10-13T06:03:42;487.00;2380.80
16491;DHT22;8356;51.214;3.270;2023-10-13T06:06:26;487.10;2380.80
16491;DHT22;8356;51.214;3.270;2023-10-13T06:09:11;487.00;2380.80
16491;DHT22;8356;51.214;3.270;2023-10-13T06:11:55;487.10;2380.80
16491;DHT22;8356;51.214;3.270;2023-10-13T06:14:40;487.10;2380.80
16491;DHT22;8356;51.214;3.270;2023-10-13T06:17:24;487.10;2380.80
16491;DHT22;8356;51.214;3.270;2023-10-13T06:20:08;487.10;2380.80
16491;DHT22;8356;51.214;3.270;2023-10-13T06:22:52;487.10;2380.80
16491;DHT22;8356;51.214;3.270;2023-10-13T06:25:37;486.60;2380.80
16491;DHT22;8356;51.214;3.270;2023-10-13T06:28:22;487.10;2380.80
16491;DHT22;8356;51.214;3.270;2023-10-13T06:31:07;487.10;2380.80
16491;DHT22;8356;51.214;3.270;2023-10-13T06:33:33;487.10;2380.80
16491;DHT22;8356;51.214;3.270;2023-10-13T06:36:03;486.80;2380.80
16491;DHT22;8356;51.214;3.270;2023-10-13T06:38:29;487.20;2380.80
16491;DHT22;8356;51.214;3.270;2023-10-13T06:41:18;487.20;2380.80
16491;DHT22;8356;51.214;3.270;2023-10-13T06:43:55;487.20;2380.80
16491;DHT22;8356;51.214;3.270;2023-10-13T06:46:30;487.30;2380.80
16491;DHT22;8356;51.214;3.270;2023-10-13T06:48:59;487.30;2380.80
16491;DHT22;8356;51.214;3.270;2023-10-13T06:51:25;487.30;2380.80
16491;DHT22;8356;51.214;3.270;2023-10-13T06:53:56;487.30;2380.80
16491;DHT22;8356;51.214;3.270;2023-10-13T06:56:22;487.30;2380.80
16491;DHT22;8356;51.214;3.270;2023-10-13T06:58:52;487.30;2380.80
16491;DHT22;8356;51.214;3.270;2023-10-13T07:01:27;487.30;2380.80
16491;DHT22;8356;51.214;3.270;2023-10-13T07:03:53;487.30;2380.80
16491;DHT22;8356;51.214;3.270;2023-10-13T07:06:22;487.30;2380.80
16491;DHT22;8356;51.214;3.270;2023-10-13T07:08:48;512.00;2380.80
16491;DHT22;8356;51.214;3.270;2023-10-13T07:11:27;512.00;2380.80
16491;DHT22;8356;51.214;3.270;2023-10-13T07:14:04;512.10;2380.80
16491;DHT22;8356;51.214;3.270;2023-10-13T07:17:01;512.10;2380.80
16491;DHT22;8356;51.214;3.270;2023-10-13T07:19:28;512.10;2380.80
16491;DHT22;8356;51.214;3.270;2023-10-13T07:22:01;512.20;2380.80
16491;DHT22;8356;51.214;3.270;2023-10-13T07:24:45;512.20;2380.80
16491;DHT22;8356;51.214;3.270;2023-10-13T07:27:21;512.20;2380.80
16491;DHT22;8356;51.214;3.270;2023-10-13T07:29:55;512.20;2380.80
16491;DHT22;8356;51.214;3.270;2023-10-13T07:32:43;512.20;2380.80
16491;DHT22;8356;51.214;3.270;2023-10-13T07:35:16;512.20;2380.80
16491;DHT22;8356;51.214;3.270;2023-10-13T07:37:45;512.20;2380.80
16491;DHT22;8356;51.214;3.270;2023-10-13T07:40:14;512.30;2380.80
16491;DHT22;8356;51.214;3.270;2023-10-13T07:42:52;512.30;2380.80
16491;DHT22;8356;51.214;3.270;2023-10-13T07:45:18;512.50;2380.80
16491;DHT22;8356;51.214;3.270;2023-10-13T07:48:02;512.50;2380.80
16491;DHT22;8356;51.214;3.270;2023-10-13T07:50:34;512.60;2380.80
16491;DHT22;8356;51.214;3.270;2023-10-13T07:52:59;537.90;2406.40
16491;DHT22;8356;51.214;3.270;2023-10-13T07:55:33;512.80;2380.80
16491;DHT22;8356;51.214;3.270;2023-10-13T07:57:59;512.90;2380.80
16491;DHT22;8356;51.214;3.270;2023-10-13T08:00:26;537.70;2406.40
16491;DHT22;8356;51.214;3.270;2023-10-13T08:03:12;537.80;2406.40
16491;DHT22;8356;51.214;3.270;2023-10-13T08:05:45;537.90;2406.40
16491;DHT22;8356;51.214;3.270;2023-10-13T08:08:27;537.90;2406.40
16491;DHT22;8356;51.214;3.270;2023-10-13T08:11:10;538.00;2406.40
16491;DHT22;8356;51.214;3.270;2023-10-13T08:13:58;538.00;2406.40
16491;DHT22;8356;51.214;3.270;2023-10-13T08:16:42;538.10;2406.40
16491;DHT22;8356;51.214;3.270;2023-10-13T08:19:21;538.10;2406.40
16491;DHT22;8356;51.214;3.270;2023-10-13T08:21:55;538.10;2406.40
16491;DHT22;8356;51.214;3.270;2023-10-13T08:24:25;538.10;2406.40
16491;DHT22;8356;51.214;3.270;2023-10-13T08:26:55;538.10;2406.40
16491;DHT22;8356;51.214;3.270;2023-10-13T08:29:46;538.10;2406.40
16491;DHT22;8356;51.214;3.270;2023-10-13T08:32:27;538.10;2406.40
16491;DHT22;8356;51.214;3.270;2023-10-13T08:34:54;538.20;2406.40
16491;DHT22;8356;51.214;3.270;2023-10-13T08:37:23;538.20;2406.40
16491;DHT22;8356;51.214;3.270;2023-10-13T08:39:49;538.20;2406.40
16491;DHT22;8356;51.214;3.270;2023-10-13T08:42:33;538.20;2406.40
16491;DHT22;8356;51.214;3.270;2023-10-13T08:48:08;538.30;2406.40
16491;DHT22;8356;51.214;3.270;2023-10-13T08:50:48;538.20;2406.40
16491;DHT22;8356;51.214;3.270;2023-10-13T08:58:28;538.10;2406.40
16491;DHT22;8356;51.214;3.270;2023-10-13T09:01:13;538.10;2406.40
16491;DHT22;8356;51.214;3.270;2023-10-13T09:03:40;538.10;2406.40
16491;DHT22;8356;51.214;3.270;2023-10-13T09:06:13;538.10;2406.40
16491;DHT22;8356;51.214;3.270;2023-10-13T09:08:45;537.90;2406.40
16491;DHT22;8356;51.214;3.270;2023-10-13T09:11:34;538.30;2406.40
16491;DHT22;8356;51.214;3.270;2023-10-13T09:14:15;538.30;2406.40
16491;DHT22;8356;51.214;3.270;2023-10-13T09:17:05;538.30;2406.40
16491;DHT22;8356;51.214;3.270;2023-10-13T09:19:52;538.40;2406.40
16491;DHT22;8356;51.214;3.270;2023-10-13T09:22:27;538.40;2406.40
16491;DHT22;8356;51.214;3.270;2023-10-13T09:25:01;538.50;2406.40
16491;DHT22;8356;51.214;3.270;2023-10-13T09:27:29;563.20;2432.00
16491;DHT22;8356;51.214;3.270;2023-10-13T09:29:59;563.40;2432.00
16491;DHT22;8356;51.214;3.270;2023-10-13T09:32:33;563.40;2432.00
16491;DHT22;8356;51.214;3.270;2023-10-13T09:35:18;563.60;2432.00
16491;DHT22;8356;51.214;3.270;2023-10-13T09:37:45;563.70;2432.00
16491;DHT22;8356;51.214;3.270;2023-10-13T09:40:15;563.40;2432.00
16491;DHT22;8356;51.214;3.270;2023-10-13T09:43:00;563.90;2432.00
16491;DHT22;8356;51.214;3.270;2023-10-13T09:45:35;563.90;2432.00
16491;DHT22;8356;51.214;3.270;2023-10-13T09:51:02;563.70;2432.00
16491;DHT22;8356;51.214;3.270;2023-10-13T09:53:31;563.70;2432.00
16491;DHT22;8356;51.214;3.270;2023-10-13T09:56:16;563.60;2432.00
16491;DHT22;8356;51.214;3.270;2023-10-13T09:59:10;563.50;2432.00
16491;DHT22;8356;51.214;3.270;2023-10-13T10:01:42;563.50;2432.00
16491;DHT22;8356;51.214;3.270;2023-10-13T10:04:23;563.40;2432.00
16491;DHT22;8356;51.214;3.270;2023-10-13T10:07:07;563.40;2432.00
16491;DHT22;8356;51.214;3.270;2023-10-13T10:09:34;563.40;2432.00
16491;DHT22;8356;51.214;3.270;2023-10-13T10:15:43;563.40;2432.00
16491;DHT22;8356;51.214;3.270;2023-10-13T10:18:22;563.40;2432.00
16491;DHT22;8356;51.214;3.270;2023-10-13T10:20:51;563.40;2432.00
16491;DHT22;8356;51.214;3.270;2023-10-13T10:23:28;563.40;2432.00
16491;DHT22;8356;51.214;3.270;2023-10-13T10:26:12;563.40;2432.00
16491;DHT22;8356;51.214;3.270;2023-10-13T10:28:45;563.40;2432.00
16491;DHT22;8356;51.214;3.270;2023-10-13T10:31:12;563.40;2432.00
16491;DHT22;8356;51.214;3.270;2023-10-13T10:33:39;563.40;2432.00
16491;DHT22;8356;51.214;3.270;2023-10-13T10:36:05;563.40;2432.00
16491;DHT22;8356;51.214;3.270;2023-10-13T10:38:31;563.40;2432.00
16491;DHT22;8356;51.214;3.270;2023-10-13T10:41:04;563.40;2432.00
16491;DHT22;8356;51.214;3.270;2023-10-13T10:46:09;563.60;2432.00
16491;DHT22;8356;51.214;3.270;2023-10-13T10:48:37;563.80;2432.00
16491;DHT22;8356;51.214;3.270;2023-10-13T10:51:08;563.90;2432.00
16491;DHT22;8356;51.214;3.270;2023-10-13T10:54:00;563.90;2432.00
16491;DHT22;8356;51.214;3.270;2023-10-13T10:56:38;563.90;2432.00
16491;DHT22;8356;51.214;3.270;2023-10-13T10:59:06;564.00;2432.00
16491;DHT22;8356;51.214;3.270;2023-10-13T11:01:45;564.10;2432.00
16491;DHT22;8356;51.214;3.270;2023-10-13T11:04:17;588.80;2432.00
16491;DHT22;8356;51.214;3.270;2023-10-13T11:06:59;588.90;2432.00
16491;DHT22;8356;51.214;3.270;2023-10-13T11:14:44;589.30;2432.00
16491;DHT22;8356;51.214;3.270;2023-10-13T11:17:21;589.40;2432.00
16491;DHT22;8356;51.214;3.270;2023-10-13T11:19:52;589.40;2432.00
16491;DHT22;8356;51.214;3.270;2023-10-13T11:22:20;589.40;2432.00
16491;DHT22;8356;51.214;3.270;2023-10-13T11:25:03;589.50;2432.00
16491;DHT22;8356;51.214;3.270;2023-10-13T11:27:38;589.70;2432.00
16491;DHT22;8356;51.214;3.270;2023-10-13T11:30:18;614.60;2432.00
16491;DHT22;8356;51.214;3.270;2023-10-13T11:33:00;614.80;2432.00
16491;DHT22;8356;51.214;3.270;2023-10-13T11:35:26;615.00;2432.00
16491;DHT22;8356;51.214;3.270;2023-10-13T11:38:12;615.00;2432.00
16491;DHT22;8356;51.214;3.270;2023-10-13T11:40:39;615.00;2432.00
16491;DHT22;8356;51.214;3.270;2023-10-13T11:43:25;615.00;2432.00
16491;DHT22;8356;51.214;3.270;2023-10-13T11:45:51;614.90;2432.00
16491;DHT22;8356;51.214;3.270;2023-10-13T11:48:40;614.90;2432.00
16491;DHT22;8356;51.214;3.270;2023-10-13T11:51:13;614.70;2432.00
16491;DHT22;8356;51.214;3.270;2023-10-13T11:53:58;614.60;2432.00
16491;DHT22;8356;51.214;3.270;2023-10-13T11:56:25;614.60;2432.00
16491;DHT22;8356;51.214;3.270;2023-10-13T11:58:51;614.50;2432.00
16491;DHT22;8356;51.214;3.270;2023-10-13T12:01:17;589.70;2432.00
16491;DHT22;8356;51.214;3.270;2023-10-13T12:03:48;589.60;2432.00
16491;DHT22;8356;51.214;3.270;2023-10-13T12:06:40;589.40;2432.00
16491;DHT22;8356;51.214;3.270;2023-10-13T12:09:10;589.30;2432.00
16491;DHT22;8356;51.214;3.270;2023-10-13T12:11:41;589.30;2432.00
16491;DHT22;8356;51.214;3.270;2023-10-13T12:14:08;589.30;2432.00
16491;DHT22;8356;51.214;3.270;2023-10-13T12:16:47;589.30;2432.00
16491;DHT22;8356;51.214;3.270;2023-10-13T12:19:22;589.30;2432.00
16491;DHT22;8356;51.214;3.270;2023-10-13T12:21:52;589.30;2432.00
16491;DHT22;8356;51.214;3.270;2023-10-13T12:24:22;589.40;2432.00
16491;DHT22;8356;51.214;3.270;2023-10-13T12:26:49;589.40;2432.00
16491;DHT22;8356;51.214;3.270;2023-10-13T12:29:24;589.50;2432.00
16491;DHT22;8356;51.214;3.270;2023-10-13T12:31:57;589.50;2432.00
16491;DHT22;8356;51.214;3.270;2023-10-13T12:34:38;589.50;2432.00
16491;DHT22;8356;51.214;3.270;2023-10-13T12:37:29;589.40;2432.00
16491;DHT22;8356;51.214;3.270;2023-10-13T12:40:14;589.40;2432.00
16491;DHT22;8356;51.214;3.270;2023-10-13T12:42:59;589.30;2432.00
16491;DHT22;8356;51.214;3.270;2023-10-13T12:45:45;589.30;2432.00
16491;DHT22;8356;51.214;3.270;2023-10-13T12:48:30;589.30;2432.00
16491;DHT22;8356;51.214;3.270;2023-10-13T12:51:15;589.30;2432.00
16491;DHT22;8356;51.214;3.270;2023-10-13T12:54:05;589.30;2432.00
16491;DHT22;8356;51.214;3.270;2023-10-13T12:56:39;589.10;2432.00
16491;DHT22;8356;51.214;3.270;2023-10-13T12:59:08;589.00;2432.00
16491;DHT22;8356;51.214;3.270;2023-10-13T13:01:35;588.90;2432.00
16491;DHT22;8356;51.214;3.270;2023-10-13T13:04:00;588.80;2432.00
16491;DHT22;8356;51.214;3.270;2023-10-13T13:06:29;564.00;2432.00
16491;DHT22;8356;51.214;3.270;2023-10-13T13:08:57;563.90;2432.00
16491;DHT22;8356;51.214;3.270;2023-10-13T13:11:24;563.80;2432.00
16491;DHT22;8356;51.214;3.270;2023-10-13T13:13:50;563.70;2432.00
16491;DHT22;8356;51.214;3.270;2023-10-13T13:16:18;563.60;2432.00
16491;DHT22;8356;51.214;3.270;2023-10-13T13:18:47;563.50;2432.00
16491;DHT22;8356;51.214;3.270;2023-10-13T13:21:13;563.40;2432.00
16491;DHT22;8356;51.214;3.270;2023-10-13T13:23:46;563.40;2432.00
16491;DHT22;8356;51.214;3.270;2023-10-13T13:26:12;563.30;2432.00
16491;DHT22;8356;51.214;3.270;2023-10-13T13:28:46;563.20;2432.00
16491;DHT22;8356;51.214;3.270;2023-10-13T13:31:18;538.50;2406.40
16491;DHT22;8356;51.214;3.270;2023-10-13T13:33:44;538.50;2406.40
16491;DHT22;8356;51.214;3.270;2023-10-13T13:36:10;538.50;2406.40
16491;DHT22;8356;51.214;3.270;2023-10-13T13:38:40;538.50;2406.40
16491;DHT22;8356;51.214;3.270;2023-10-13T13:41:13;538.50;2406.40
16491;DHT22;8356;51.214;3.270;2023-10-13T13:43:45;563.40;2432.00
16491;DHT22;8356;51.214;3.270;2023-10-13T13:46:21;563.20;2432.00
16491;DHT22;8356;51.214;3.270;2023-10-13T13:48:51;563.20;2432.00
16491;DHT22;8356;51.214;3.270;2023-10-13T13:51:23;563.30;2432.00
16491;DHT22;8356;51.214;3.270;2023-10-13T13:53:56;563.40;2432.00
16491;DHT22;8356;51.214;3.270;2023-10-13T13:56:22;563.40;2432.00
16491;DHT22;8356;51.214;3.270;2023-10-13T13:58:51;563.30;2432.00
16491;DHT22;8356;51.214;3.270;2023-10-13T14:01:18;538.30;2406.40
16491;DHT22;8356;51.214;3.270;2023-10-13T14:03:53;563.30;2432.00
16491;DHT22;8356;51.214;3.270;2023-10-13T14:06:23;563.40;2432.00
16491;DHT22;8356;51.214;3.270;2023-10-13T14:08:57;563.40;2432.00
16491;DHT22;8356;51.214;3.270;2023-10-13T14:11:30;563.40;2432.00
16491;DHT22;8356;51.214;3.270;2023-10-13T14:14:10;563.50;2432.00
16491;DHT22;8356;51.214;3.270;2023-10-13T14:16:43;563.50;2432.00
16491;DHT22;8356;51.214;3.270;2023-10-13T14:19:13;563.60;2432.00
16491;DHT22;8356;51.214;3.270;2023-10-13T14:22:01;563.50;2432.00
16491;DHT22;8356;51.214;3.270;2023-10-13T14:24:34;563.40;2432.00
16491;DHT22;8356;51.214;3.270;2023-10-13T14:27:02;563.40;2432.00
16491;DHT22;8356;51.214;3.270;2023-10-13T14:29:40;563.50;2432.00
16491;DHT22;8356;51.214;3.270;2023-10-13T14:32:07;563.50;2432.00
16491;DHT22;8356;51.214;3.270;2023-10-13T14:34:38;563.60;2432.00
16491;DHT22;8356;51.214;3.270;2023-10-13T14:37:04;563.60;2432.00
16491;DHT22;8356;51.214;3.270;2023-10-13T14:39:30;563.60;2432.00
16491;DHT22;8356;51.214;3.270;2023-10-13T14:41:56;563.70;2432.00
16491;DHT22;8356;51.214;3.270;2023-10-13T14:44:21;563.80;2432.00
16491;DHT22;8356;51.214;3.270;2023-10-13T14:46:52;563.80;2432.00
16491;DHT22;8356;51.214;3.270;2023-10-13T14:49:20;563.90;2432.00
16491;DHT22;8356;51.214;3.270;2023-10-13T14:51:46;563.90;2432.00
16491;DHT22;8356;51.214;3.270;2023-10-13T14:54:12;563.90;2432.00
16491;DHT22;8356;51.214;3.270;2023-10-13T14:56:40;563.90;2432.00
16491;DHT22;8356;51.214;3.270;2023-10-13T14:59:08;563.90;2432.00
16491;DHT22;8356;51.214;3.270;2023-10-13T15:01:42;563.90;2432.00
16491;DHT22;8356;51.214;3.270;2023-10-13T15:04:08;564.00;2432.00
16491;DHT22;8356;51.214;3.270;2023-10-13T15:06:34;564.00;2432.00
16491;DHT22;8356;51.214;3.270;2023-10-13T15:09:00;564.00;2432.00
16491;DHT22;8356;51.214;3.270;2023-10-13T15:11:27;564.00;2432.00
16491;DHT22;8356;51.214;3.270;2023-10-13T15:14:02;564.00;2432.00
16491;DHT22;8356;51.214;3.270;2023-10-13T15:16:27;563.90;2432.00
16491;DHT22;8356;51.214;3.270;2023-10-13T15:18:53;564.00;2432.00
16491;DHT22;8356;51.214;3.270;2023-10-13T15:21:24;563.90;2432.00
16491;DHT22;8356;51.214;3.270;2023-10-13T15:24:10;563.90;2432.00
16491;DHT22;8356;51.214;3.270;2023-10-13T15:26:43;563.90;2432.00
16491;DHT22;8356;51.214;3.270;2023-10-13T15:29:18;563.90;2432.00
16491;DHT22;8356;51.214;3.270;2023-10-13T15:31:51;563.90;2432.00
16491;DHT22;8356;51.214;3.270;2023-10-13T15:34:26;563.90;2432.00
16491;DHT22;8356;51.214;3.270;2023-10-13T15:36:53;563.90;2432.00
16491;DHT22;8356;51.214;3.270;2023-10-13T15:39:21;563.80;2432.00
16491;DHT22;8356;51.214;3.270;2023-10-13T15:41:50;563.80;2432.00
16491;DHT22;8356;51.214;3.270;2023-10-13T15:44:19;563.80;2432.00
16491;DHT22;8356;51.214;3.270;2023-10-13T15:46:46;563.70;2432.00
16491;DHT22;8356;51.214;3.270;2023-10-13T15:49:15;563.50;2432.00
16491;DHT22;8356;51.214;3.270;2023-10-13T15:51:41;563.30;2432.00
16491;DHT22;8356;51.214;3.270;2023-10-13T15:54:07;538.50;2406.40
16491;DHT22;8356;51.214;3.270;2023-10-13T15:56:44;538.30;2406.40
16491;DHT22;8356;51.214;3.270;2023-10-13T15:59:10;538.20;2406.40
16491;DHT22;8356;51.214;3.270;2023-10-13T16:01:36;538.10;2406.40
16491;DHT22;8356;51.214;3.270;2023-10-13T16:04:04;538.00;2406.40
16491;DHT22;8356;51.214;3.270;2023-10-13T16:06:39;537.90;2406.40